sensor_id;sensor_type;location;lat;lon;timestamp;P1;durP1;ratioP1;P2;durP2;ratioP2
39788;SDS011;25478;42.626;23.320;2023-03-23T00:01:47;26.20;;;14.23;;
39788;SDS011;25478;42.626;23.320;2023-03-23T00:04:15;22.07;;;11.60;;
39788;SDS011;25478;42.626;23.320;2023-03-23T00:06:41;14.90;;;9.77;;
39788;SDS011;25478;42.626;23.320;2023-03-23T00:09:07;18.83;;;9.43;;
39788;SDS011;25478;42.626;23.320;2023-03-23T00:11:33;17.07;;;10.17;;
39788;SDS011;25478;42.626;23.320;2023-03-23T00:13:59;18.93;;;11.00;;
39788;SDS011;25478;42.626;23.320;2023-03-23T00:16:27;18.53;;;11.07;;
39788;SDS011;25478;42.626;23.320;2023-03-23T00:18:58;18.60;;;11.17;;
39788;SDS011;25478;42.626;23.320;2023-03-23T00:21:26;17.77;;;10.73;;
39788;SDS011;25478;42.626;23.320;2023-03-23T00:26:31;20.43;;;10.70;;
39788;SDS011;25478;42.626;23.320;2023-03-23T00:29:02;15.93;;;9.03;;
39788;SDS011;25478;42.626;23.320;2023-03-23T00:31:29;17.47;;;9.43;;
39788;SDS011;25478;42.626;23.320;2023-03-23T00:34:02;14.63;;;9.20;;
39788;SDS011;25478;42.626;23.320;2023-03-23T00:36:30;15.13;;;9.57;;
39788;SDS011;25478;42.626;23.320;2023-03-23T00:38:56;18.03;;;10.67;;
39788;SDS011;25478;42.626;23.320;2023-03-23T00:41:24;17.83;;;10.30;;
39788;SDS011;25478;42.626;23.320;2023-03-23T00:43:52;17.33;;;10.10;;
39788;SDS011;25478;42.626;23.320;2023-03-23T00:46:19;13.87;;;9.83;;
39788;SDS011;25478;42.626;23.320;2023-03-23T00:48:45;12.63;;;8.57;;
39788;SDS011;25478;42.626;23.320;2023-03-23T00:51:11;16.07;;;10.50;;
39788;SDS011;25478;42.626;23.320;2023-03-23T00:53:40;16.00;;;10.37;;
39788;SDS011;25478;42.626;23.320;2023-03-23T00:56:07;16.70;;;10.43;;
39788;SDS011;25478;42.626;23.320;2023-03-23T00:58:34;20.20;;;13.03;;
39788;SDS011;25478;42.626;23.320;2023-03-23T01:01:00;24.50;;;14.23;;
39788;SDS011;25478;42.626;23.320;2023-03-23T01:03:26;28.90;;;16.80;;
39788;SDS011;25478;42.626;23.320;2023-03-23T01:05:53;28.97;;;18.17;;
39788;SDS011;25478;42.626;23.320;2023-03-23T01:08:20;41.53;;;26.40;;
39788;SDS011;25478;42.626;23.320;2023-03-23T01:10:47;40.80;;;23.07;;
39788;SDS011;25478;42.626;23.320;2023-03-23T01:13:13;30.90;;;17.40;;
39788;SDS011;25478;42.626;23.320;2023-03-23T01:15:40;22.50;;;14.93;;
39788;SDS011;25478;42.626;23.320;2023-03-23T01:18:07;19.67;;;12.00;;
39788;SDS011;25478;42.626;23.320;2023-03-23T01:20:34;16.97;;;10.63;;
39788;SDS011;25478;42.626;23.320;2023-03-23T01:23:00;13.40;;;9.20;;
39788;SDS011;25478;42.626;23.320;2023-03-23T01:25:30;14.10;;;8.80;;
39788;SDS011;25478;42.626;23.320;2023-03-23T01:27:57;12.70;;;8.20;;
39788;SDS011;25478;42.626;23.320;2023-03-23T01:30:23;12.70;;;8.30;;
39788;SDS011;25478;42.626;23.320;2023-03-23T01:32:49;15.77;;;8.83;;
39788;SDS011;25478;42.626;23.320;2023-03-23T01:35:16;13.03;;;8.80;;
39788;SDS011;25478;42.626;23.320;2023-03-23T01:37:43;16.03;;;9.57;;
39788;SDS011;25478;42.626;23.320;2023-03-23T01:40:09;16.73;;;9.73;;
39788;SDS011;25478;42.626;23.320;2023-03-23T01:42:36;16.93;;;9.90;;
39788;SDS011;25478;42.626;23.320;2023-03-23T01:47:49;19.03;;;10.63;;
39788;SDS011;25478;42.626;23.320;2023-03-23T01:50:21;16.10;;;9.93;;
39788;SDS011;25478;42.626;23.320;2023-03-23T01:52:49;17.23;;;10.57;;
39788;SDS011;25478;42.626;23.320;2023-03-23T01:55:18;18.10;;;11.20;;
39788;SDS011;25478;42.626;23.320;2023-03-23T01:57:45;17.97;;;10.60;;
39788;SDS011;25478;42.626;23.320;2023-03-23T02:00:14;14.90;;;9.40;;
39788;SDS011;25478;42.626;23.320;2023-03-23T02:02:44;20.80;;;10.97;;
39788;SDS011;25478;42.626;23.320;2023-03-23T02:05:14;17.70;;;11.07;;
39788;SDS011;25478;42.626;23.320;2023-03-23T02:07:47;21.57;;;12.23;;
39788;SDS011;25478;42.626;23.320;2023-03-23T02:10:14;18.70;;;10.37;;
39788;SDS011;25478;42.626;23.320;2023-03-23T02:12:40;15.97;;;10.33;;
39788;SDS011;25478;42.626;23.320;2023-03-23T02:15:07;16.93;;;9.50;;
39788;SDS011;25478;42.626;23.320;2023-03-23T02:25:35;17.27;;;9.67;;
39788;SDS011;25478;42.626;23.320;2023-03-23T02:36:28;19.50;;;11.70;;
39788;SDS011;25478;42.626;23.320;2023-03-23T02:41:39;21.57;;;12.83;;
39788;SDS011;25478;42.626;23.320;2023-03-23T02:44:09;18.07;;;11.67;;
39788;SDS011;25478;42.626;23.320;2023-03-23T02:46:37;21.53;;;11.97;;
39788;SDS011;25478;42.626;23.320;2023-03-23T02:49:04;19.00;;;11.37;;
39788;SDS011;25478;42.626;23.320;2023-03-23T02:51:32;21.33;;;11.50;;
39788;SDS011;25478;42.626;23.320;2023-03-23T02:54:01;17.77;;;11.40;;
39788;SDS011;25478;42.626;23.320;2023-03-23T02:56:28;19.70;;;10.83;;
39788;SDS011;25478;42.626;23.320;2023-03-23T02:58:56;19.33;;;11.30;;
39788;SDS011;25478;42.626;23.320;2023-03-23T03:03:50;17.10;;;11.30;;
39788;SDS011;25478;42.626;23.320;2023-03-23T03:06:24;19.20;;;11.27;;
39788;SDS011;25478;42.626;23.320;2023-03-23T03:08:59;18.00;;;11.30;;
39788;SDS011;25478;42.626;23.320;2023-03-23T03:11:32;17.87;;;11.17;;
39788;SDS011;25478;42.626;23.320;2023-03-23T03:14:37;20.07;;;12.00;;
39788;SDS011;25478;42.626;23.320;2023-03-23T03:17:01;16.70;;;10.43;;
39788;SDS011;25478;42.626;23.320;2023-03-23T03:19:41;18.08;;;11.55;;
39788;SDS011;25478;42.626;23.320;2023-03-23T03:22:11;19.07;;;11.00;;
39788;SDS011;25478;42.626;23.320;2023-03-23T03:24:39;17.67;;;11.53;;
39788;SDS011;25478;42.626;23.320;2023-03-23T03:27:10;22.43;;;12.53;;
39788;SDS011;25478;42.626;23.320;2023-03-23T03:29:46;21.23;;;12.73;;
39788;SDS011;25478;42.626;23.320;2023-03-23T03:32:17;19.57;;;12.37;;
39788;SDS011;25478;42.626;23.320;2023-03-23T03:34:48;19.00;;;11.80;;
39788;SDS011;25478;42.626;23.320;2023-03-23T03:37:16;18.90;;;10.60;;
39788;SDS011;25478;42.626;23.320;2023-03-23T03:39:45;19.03;;;11.23;;
39788;SDS011;25478;42.626;23.320;2023-03-23T03:42:11;16.10;;;10.03;;
39788;SDS011;25478;42.626;23.320;2023-03-23T03:44:36;20.83;;;11.53;;
39788;SDS011;25478;42.626;23.320;2023-03-23T03:47:02;17.17;;;10.43;;
39788;SDS011;25478;42.626;23.320;2023-03-23T03:49:28;17.17;;;10.77;;
39788;SDS011;25478;42.626;23.320;2023-03-23T03:51:55;16.90;;;9.80;;
39788;SDS011;25478;42.626;23.320;2023-03-23T03:54:25;17.27;;;10.70;;
39788;SDS011;25478;42.626;23.320;2023-03-23T03:56:51;15.90;;;9.97;;
39788;SDS011;25478;42.626;23.320;2023-03-23T03:59:41;18.33;;;10.13;;
39788;SDS011;25478;42.626;23.320;2023-03-23T04:02:25;16.67;;;9.43;;
39788;SDS011;25478;42.626;23.320;2023-03-23T04:04:51;14.37;;;9.57;;
39788;SDS011;25478;42.626;23.320;2023-03-23T04:07:18;15.63;;;8.47;;
39788;SDS011;25478;42.626;23.320;2023-03-23T04:09:44;14.93;;;9.30;;
39788;SDS011;25478;42.626;23.320;2023-03-23T04:12:12;15.97;;;9.50;;
39788;SDS011;25478;42.626;23.320;2023-03-23T04:15:14;15.83;;;9.77;;
39788;SDS011;25478;42.626;23.320;2023-03-23T04:17:40;14.30;;;9.20;;
39788;SDS011;25478;42.626;23.320;2023-03-23T04:20:08;13.63;;;9.00;;
39788;SDS011;25478;42.626;23.320;2023-03-23T04:22:40;15.83;;;9.40;;
39788;SDS011;25478;42.626;23.320;2023-03-23T04:25:09;15.63;;;9.80;;
39788;SDS011;25478;42.626;23.320;2023-03-23T04:27:38;17.17;;;10.53;;
39788;SDS011;25478;42.626;23.320;2023-03-23T04:30:09;16.67;;;9.67;;
39788;SDS011;25478;42.626;23.320;2023-03-23T04:32:59;16.87;;;10.43;;
39788;SDS011;25478;42.626;23.320;2023-03-23T04:35:27;16.43;;;10.20;;
39788;SDS011;25478;42.626;23.320;2023-03-23T04:38:16;18.60;;;10.37;;
39788;SDS011;25478;42.626;23.320;2023-03-23T04:40:50;20.13;;;10.70;;
39788;SDS011;25478;42.626;23.320;2023-03-23T04:43:35;14.20;;;9.43;;
39788;SDS011;25478;42.626;23.320;2023-03-23T04:46:22;15.17;;;8.87;;
39788;SDS011;25478;42.626;23.320;2023-03-23T04:48:50;16.47;;;10.57;;
39788;SDS011;25478;42.626;23.320;2023-03-23T04:51:19;16.67;;;10.13;;
39788;SDS011;25478;42.626;23.320;2023-03-23T04:53:48;17.27;;;10.23;;
39788;SDS011;25478;42.626;23.320;2023-03-23T04:56:15;23.33;;;12.07;;
39788;SDS011;25478;42.626;23.320;2023-03-23T04:58:44;18.60;;;11.80;;
39788;SDS011;25478;42.626;23.320;2023-03-23T05:01:30;25.33;;;14.77;;
39788;SDS011;25478;42.626;23.320;2023-03-23T05:04:22;22.67;;;13.90;;
39788;SDS011;25478;42.626;23.320;2023-03-23T05:07:04;19.50;;;12.83;;
39788;SDS011;25478;42.626;23.320;2023-03-23T05:09:33;19.23;;;12.17;;
39788;SDS011;25478;42.626;23.320;2023-03-23T05:12:08;16.07;;;10.97;;
39788;SDS011;25478;42.626;23.320;2023-03-23T05:14:44;17.40;;;10.13;;
39788;SDS011;25478;42.626;23.320;2023-03-23T05:17:13;15.53;;;9.80;;
39788;SDS011;25478;42.626;23.320;2023-03-23T05:19:43;24.97;;;12.87;;
39788;SDS011;25478;42.626;23.320;2023-03-23T05:22:30;20.63;;;13.37;;
39788;SDS011;25478;42.626;23.320;2023-03-23T05:25:00;20.23;;;12.47;;
39788;SDS011;25478;42.626;23.320;2023-03-23T05:27:32;21.63;;;12.67;;
39788;SDS011;25478;42.626;23.320;2023-03-23T05:30:03;22.37;;;12.53;;
39788;SDS011;25478;42.626;23.320;2023-03-23T05:32:31;20.47;;;12.07;;
39788;SDS011;25478;42.626;23.320;2023-03-23T05:35:07;23.97;;;12.90;;
39788;SDS011;25478;42.626;23.320;2023-03-23T05:37:33;40.90;;;22.53;;
39788;SDS011;25478;42.626;23.320;2023-03-23T05:40:06;40.27;;;22.33;;
39788;SDS011;25478;42.626;23.320;2023-03-23T05:42:32;36.27;;;20.53;;
39788;SDS011;25478;42.626;23.320;2023-03-23T05:45:09;28.73;;;17.93;;
39788;SDS011;25478;42.626;23.320;2023-03-23T05:47:36;29.90;;;17.17;;
39788;SDS011;25478;42.626;23.320;2023-03-23T05:50:08;42.20;;;23.43;;
39788;SDS011;25478;42.626;23.320;2023-03-23T05:52:35;48.50;;;29.50;;
39788;SDS011;25478;42.626;23.320;2023-03-23T05:55:03;52.87;;;30.97;;
39788;SDS011;25478;42.626;23.320;2023-03-23T05:57:32;55.27;;;32.07;;
39788;SDS011;25478;42.626;23.320;2023-03-23T06:00:02;51.37;;;30.20;;
39788;SDS011;25478;42.626;23.320;2023-03-23T06:02:55;50.90;;;27.50;;
39788;SDS011;25478;42.626;23.320;2023-03-23T06:05:33;52.00;;;28.07;;
39788;SDS011;25478;42.626;23.320;2023-03-23T06:07:59;48.17;;;28.37;;
39788;SDS011;25478;42.626;23.320;2023-03-23T06:10:25;50.33;;;29.97;;
39788;SDS011;25478;42.626;23.320;2023-03-23T06:12:58;50.07;;;29.00;;
39788;SDS011;25478;42.626;23.320;2023-03-23T06:15:23;46.20;;;29.00;;
39788;SDS011;25478;42.626;23.320;2023-03-23T06:17:59;51.50;;;29.97;;
39788;SDS011;25478;42.626;23.320;2023-03-23T06:23:11;51.60;;;28.70;;
39788;SDS011;25478;42.626;23.320;2023-03-23T06:25:37;51.17;;;29.33;;
39788;SDS011;25478;42.626;23.320;2023-03-23T06:28:02;55.03;;;33.73;;
39788;SDS011;25478;42.626;23.320;2023-03-23T06:30:29;48.13;;;31.20;;
39788;SDS011;25478;42.626;23.320;2023-03-23T06:32:56;69.23;;;40.47;;
39788;SDS011;25478;42.626;23.320;2023-03-23T06:35:42;49.90;;;31.30;;
39788;SDS011;25478;42.626;23.320;2023-03-23T06:38:25;69.00;;;43.07;;
39788;SDS011;25478;42.626;23.320;2023-03-23T06:40:53;48.60;;;27.93;;
39788;SDS011;25478;42.626;23.320;2023-03-23T06:43:20;45.13;;;27.13;;
39788;SDS011;25478;42.626;23.320;2023-03-23T06:45:58;47.63;;;27.97;;
39788;SDS011;25478;42.626;23.320;2023-03-23T06:48:40;45.67;;;27.53;;
39788;SDS011;25478;42.626;23.320;2023-03-23T06:51:08;51.17;;;28.77;;
39788;SDS011;25478;42.626;23.320;2023-03-23T06:53:36;48.67;;;28.00;;
39788;SDS011;25478;42.626;23.320;2023-03-23T06:56:03;45.33;;;28.13;;
39788;SDS011;25478;42.626;23.320;2023-03-23T06:58:30;43.87;;;27.60;;
39788;SDS011;25478;42.626;23.320;2023-03-23T07:00:56;48.67;;;29.17;;
39788;SDS011;25478;42.626;23.320;2023-03-23T07:03:28;43.90;;;27.23;;
39788;SDS011;25478;42.626;23.320;2023-03-23T07:05:57;45.03;;;28.77;;
39788;SDS011;25478;42.626;23.320;2023-03-23T07:08:26;44.37;;;27.40;;
39788;SDS011;25478;42.626;23.320;2023-03-23T07:10:52;50.67;;;28.07;;
39788;SDS011;25478;42.626;23.320;2023-03-23T07:13:22;46.23;;;28.77;;
39788;SDS011;25478;42.626;23.320;2023-03-23T07:15:55;43.00;;;25.40;;
39788;SDS011;25478;42.626;23.320;2023-03-23T07:18:21;47.37;;;24.67;;
39788;SDS011;25478;42.626;23.320;2023-03-23T07:20:51;42.07;;;25.97;;
39788;SDS011;25478;42.626;23.320;2023-03-23T07:23:20;39.63;;;26.33;;
39788;SDS011;25478;42.626;23.320;2023-03-23T07:25:55;40.53;;;25.23;;
39788;SDS011;25478;42.626;23.320;2023-03-23T07:28:27;37.90;;;24.47;;
39788;SDS011;25478;42.626;23.320;2023-03-23T07:30:58;42.03;;;27.10;;
39788;SDS011;25478;42.626;23.320;2023-03-23T07:33:24;41.77;;;26.47;;
39788;SDS011;25478;42.626;23.320;2023-03-23T07:35:52;41.63;;;27.10;;
39788;SDS011;25478;42.626;23.320;2023-03-23T07:38:19;40.97;;;26.33;;
39788;SDS011;25478;42.626;23.320;2023-03-23T07:40:47;44.23;;;26.10;;
39788;SDS011;25478;42.626;23.320;2023-03-23T07:43:16;55.47;;;30.77;;
39788;SDS011;25478;42.626;23.320;2023-03-23T07:46:07;49.73;;;28.67;;
39788;SDS011;25478;42.626;23.320;2023-03-23T07:48:47;47.10;;;28.17;;
39788;SDS011;25478;42.626;23.320;2023-03-23T07:51:14;38.33;;;25.30;;
39788;SDS011;25478;42.626;23.320;2023-03-23T07:53:42;31.30;;;19.93;;
39788;SDS011;25478;42.626;23.320;2023-03-23T07:56:28;34.43;;;22.47;;
39788;SDS011;25478;42.626;23.320;2023-03-23T07:59:04;32.43;;;20.53;;
39788;SDS011;25478;42.626;23.320;2023-03-23T08:01:35;29.70;;;19.10;;
39788;SDS011;25478;42.626;23.320;2023-03-23T08:04:26;31.83;;;21.10;;
39788;SDS011;25478;42.626;23.320;2023-03-23T08:07:24;32.70;;;22.13;;
39788;SDS011;25478;42.626;23.320;2023-03-23T08:09:56;36.00;;;21.40;;
39788;SDS011;25478;42.626;23.320;2023-03-23T08:12:44;35.27;;;21.50;;
39788;SDS011;25478;42.626;23.320;2023-03-23T08:15:29;35.07;;;21.43;;
39788;SDS011;25478;42.626;23.320;2023-03-23T08:18:24;30.80;;;20.03;;
39788;SDS011;25478;42.626;23.320;2023-03-23T08:21:11;25.33;;;17.27;;
39788;SDS011;25478;42.626;23.320;2023-03-23T08:24:00;26.43;;;16.77;;
39788;SDS011;25478;42.626;23.320;2023-03-23T08:26:55;27.80;;;17.08;;
39788;SDS011;25478;42.626;23.320;2023-03-23T08:29:44;24.30;;;15.83;;
39788;SDS011;25478;42.626;23.320;2023-03-23T08:32:29;24.50;;;15.33;;
39788;SDS011;25478;42.626;23.320;2023-03-23T08:35:11;24.57;;;16.07;;
39788;SDS011;25478;42.626;23.320;2023-03-23T08:37:58;24.77;;;15.27;;
39788;SDS011;25478;42.626;23.320;2023-03-23T08:40:49;16.23;;;9.80;;
39788;SDS011;25478;42.626;23.320;2023-03-23T08:43:34;10.43;;;7.73;;
39788;SDS011;25478;42.626;23.320;2023-03-23T08:46:35;14.27;;;8.17;;
39788;SDS011;25478;42.626;23.320;2023-03-23T08:49:18;14.63;;;9.50;;
39788;SDS011;25478;42.626;23.320;2023-03-23T08:52:11;17.80;;;9.83;;
39788;SDS011;25478;42.626;23.320;2023-03-23T09:00:53;9.67;;;6.90;;
39788;SDS011;25478;42.626;23.320;2023-03-23T09:03:44;10.67;;;7.10;;
39788;SDS011;25478;42.626;23.320;2023-03-23T09:06:41;12.17;;;8.00;;
39788;SDS011;25478;42.626;23.320;2023-03-23T09:09:08;12.53;;;8.40;;
39788;SDS011;25478;42.626;23.320;2023-03-23T09:11:34;13.50;;;8.67;;
39788;SDS011;25478;42.626;23.320;2023-03-23T09:14:02;13.47;;;8.53;;
39788;SDS011;25478;42.626;23.320;2023-03-23T09:16:31;15.87;;;8.80;;
39788;SDS011;25478;42.626;23.320;2023-03-23T09:18:57;10.77;;;8.10;;
39788;SDS011;25478;42.626;23.320;2023-03-23T09:21:24;12.10;;;8.27;;
39788;SDS011;25478;42.626;23.320;2023-03-23T09:23:51;11.50;;;7.80;;
39788;SDS011;25478;42.626;23.320;2023-03-23T09:26:17;14.20;;;8.17;;
39788;SDS011;25478;42.626;23.320;2023-03-23T09:28:42;12.43;;;8.20;;
39788;SDS011;25478;42.626;23.320;2023-03-23T09:31:09;11.70;;;7.67;;
39788;SDS011;25478;42.626;23.320;2023-03-23T09:33:36;12.53;;;8.30;;
39788;SDS011;25478;42.626;23.320;2023-03-23T09:36:02;12.10;;;8.37;;
39788;SDS011;25478;42.626;23.320;2023-03-23T09:38:30;11.53;;;8.03;;
39788;SDS011;25478;42.626;23.320;2023-03-23T09:44:01;12.20;;;8.03;;
39788;SDS011;25478;42.626;23.320;2023-03-23T09:49:20;11.87;;;7.57;;
39788;SDS011;25478;42.626;23.320;2023-03-23T09:51:51;14.77;;;9.57;;
39788;SDS011;25478;42.626;23.320;2023-03-23T09:54:29;14.30;;;9.30;;
39788;SDS011;25478;42.626;23.320;2023-03-23T09:57:01;13.63;;;9.60;;
39788;SDS011;25478;42.626;23.320;2023-03-23T10:04:44;13.97;;;8.80;;
39788;SDS011;25478;42.626;23.320;2023-03-23T10:07:16;16.07;;;9.00;;
39788;SDS011;25478;42.626;23.320;2023-03-23T10:09:45;12.77;;;8.13;;
39788;SDS011;25478;42.626;23.320;2023-03-23T10:17:46;10.50;;;7.20;;
39788;SDS011;25478;42.626;23.320;2023-03-23T10:22:49;10.83;;;7.57;;
39788;SDS011;25478;42.626;23.320;2023-03-23T10:25:18;9.50;;;6.97;;
39788;SDS011;25478;42.626;23.320;2023-03-23T10:27:50;10.50;;;7.17;;
39788;SDS011;25478;42.626;23.320;2023-03-23T10:30:37;11.33;;;7.40;;
39788;SDS011;25478;42.626;23.320;2023-03-23T10:33:10;9.90;;;7.27;;
39788;SDS011;25478;42.626;23.320;2023-03-23T10:35:46;10.77;;;7.10;;
39788;SDS011;25478;42.626;23.320;2023-03-23T10:38:21;10.30;;;7.60;;
39788;SDS011;25478;42.626;23.320;2023-03-23T10:40:56;12.23;;;7.75;;
39788;SDS011;25478;42.626;23.320;2023-03-23T10:43:25;10.20;;;7.00;;
39788;SDS011;25478;42.626;23.320;2023-03-23T10:45:55;10.87;;;6.60;;
39788;SDS011;25478;42.626;23.320;2023-03-23T10:51:03;11.93;;;7.50;;
39788;SDS011;25478;42.626;23.320;2023-03-23T10:56:01;12.00;;;7.93;;
39788;SDS011;25478;42.626;23.320;2023-03-23T10:58:33;13.93;;;8.47;;
39788;SDS011;25478;42.626;23.320;2023-03-23T11:01:01;11.30;;;8.60;;
39788;SDS011;25478;42.626;23.320;2023-03-23T11:06:05;13.03;;;7.40;;
39788;SDS011;25478;42.626;23.320;2023-03-23T11:08:54;12.33;;;7.77;;
39788;SDS011;25478;42.626;23.320;2023-03-23T11:11:25;10.97;;;7.20;;
39788;SDS011;25478;42.626;23.320;2023-03-23T11:14:00;11.00;;;7.57;;
39788;SDS011;25478;42.626;23.320;2023-03-23T11:17:00;11.53;;;7.57;;
39788;SDS011;25478;42.626;23.320;2023-03-23T11:19:28;11.73;;;8.23;;
39788;SDS011;25478;42.626;23.320;2023-03-23T11:24:42;11.17;;;7.93;;
39788;SDS011;25478;42.626;23.320;2023-03-23T11:27:10;12.33;;;7.53;;
39788;SDS011;25478;42.626;23.320;2023-03-23T11:29:48;11.07;;;7.70;;
39788;SDS011;25478;42.626;23.320;2023-03-23T11:32:17;10.60;;;8.00;;
39788;SDS011;25478;42.626;23.320;2023-03-23T11:34:52;11.47;;;7.47;;
39788;SDS011;25478;42.626;23.320;2023-03-23T11:38:02;11.27;;;7.10;;
39788;SDS011;25478;42.626;23.320;2023-03-23T11:40:15;11.13;;;7.73;;
39788;SDS011;25478;42.626;23.320;2023-03-23T11:42:44;11.47;;;7.93;;
39788;SDS011;25478;42.626;23.320;2023-03-23T11:50:55;13.87;;;7.87;;
39788;SDS011;25478;42.626;23.320;2023-03-23T11:56:28;10.70;;;7.60;;
39788;SDS011;25478;42.626;23.320;2023-03-23T11:58:57;11.37;;;8.00;;
39788;SDS011;25478;42.626;23.320;2023-03-23T12:01:41;11.33;;;7.50;;
39788;SDS011;25478;42.626;23.320;2023-03-23T12:15:18;11.33;;;7.50;;
39788;SDS011;25478;42.626;23.320;2023-03-23T12:32:13;11.63;;;7.10;;
39788;SDS011;25478;42.626;23.320;2023-03-23T12:34:37;11.53;;;7.57;;
39788;SDS011;25478;42.626;23.320;2023-03-23T12:48:09;11.60;;;7.50;;
39788;SDS011;25478;42.626;23.320;2023-03-23T12:50:45;15.30;;;7.60;;
39788;SDS011;25478;42.626;23.320;2023-03-23T12:53:33;12.70;;;7.20;;
39788;SDS011;25478;42.626;23.320;2023-03-23T12:58:53;9.60;;;6.60;;
39788;SDS011;25478;42.626;23.320;2023-03-23T13:01:25;10.02;;;6.18;;
39788;SDS011;25478;42.626;23.320;2023-03-23T13:03:56;12.83;;;7.37;;
39788;SDS011;25478;42.626;23.320;2023-03-23T13:06:31;10.25;;;6.35;;
39788;SDS011;25478;42.626;23.320;2023-03-23T13:09:17;8.68;;;6.50;;
39788;SDS011;25478;42.626;23.320;2023-03-23T13:12:01;9.30;;;6.35;;
39788;SDS011;25478;42.626;23.320;2023-03-23T13:25:06;10.67;;;6.73;;
39788;SDS011;25478;42.626;23.320;2023-03-23T13:30:04;10.93;;;6.82;;
39788;SDS011;25478;42.626;23.320;2023-03-23T13:32:42;11.23;;;6.80;;
39788;SDS011;25478;42.626;23.320;2023-03-23T13:35:13;12.40;;;6.68;;
39788;SDS011;25478;42.626;23.320;2023-03-23T13:37:50;10.97;;;7.00;;
39788;SDS011;25478;42.626;23.320;2023-03-23T13:40:51;9.97;;;6.53;;
39788;SDS011;25478;42.626;23.320;2023-03-23T13:43:10;10.85;;;6.28;;
39788;SDS011;25478;42.626;23.320;2023-03-23T13:50:49;8.33;;;6.30;;
39788;SDS011;25478;42.626;23.320;2023-03-23T13:54:04;9.53;;;6.33;;
39788;SDS011;25478;42.626;23.320;2023-03-23T13:56:19;8.00;;;5.90;;
39788;SDS011;25478;42.626;23.320;2023-03-23T13:58:51;10.77;;;6.00;;
39788;SDS011;25478;42.626;23.320;2023-03-23T14:01:34;7.90;;;5.90;;
39788;SDS011;25478;42.626;23.320;2023-03-23T14:04:04;8.93;;;6.23;;
39788;SDS011;25478;42.626;23.320;2023-03-23T14:06:35;11.27;;;6.00;;
39788;SDS011;25478;42.626;23.320;2023-03-23T14:09:50;8.70;;;5.83;;
39788;SDS011;25478;42.626;23.320;2023-03-23T14:11:58;8.63;;;5.70;;
39788;SDS011;25478;42.626;23.320;2023-03-23T14:14:33;8.07;;;5.50;;
39788;SDS011;25478;42.626;23.320;2023-03-23T14:17:06;10.13;;;6.30;;
39788;SDS011;25478;42.626;23.320;2023-03-23T14:19:38;16.00;;;8.47;;
39788;SDS011;25478;42.626;23.320;2023-03-23T14:22:05;12.07;;;6.93;;
39788;SDS011;25478;42.626;23.320;2023-03-23T14:24:43;9.83;;;6.80;;
39788;SDS011;25478;42.626;23.320;2023-03-23T14:27:13;11.67;;;6.53;;
39788;SDS011;25478;42.626;23.320;2023-03-23T14:29:40;11.13;;;7.10;;
39788;SDS011;25478;42.626;23.320;2023-03-23T14:32:07;10.80;;;6.73;;
39788;SDS011;25478;42.626;23.320;2023-03-23T14:34:35;10.50;;;6.60;;
39788;SDS011;25478;42.626;23.320;2023-03-23T14:37:01;11.33;;;6.73;;
39788;SDS011;25478;42.626;23.320;2023-03-23T14:39:37;10.43;;;6.70;;
39788;SDS011;25478;42.626;23.320;2023-03-23T14:42:04;11.03;;;6.50;;
39788;SDS011;25478;42.626;23.320;2023-03-23T14:44:35;9.07;;;6.20;;
39788;SDS011;25478;42.626;23.320;2023-03-23T14:47:05;12.47;;;6.73;;
39788;SDS011;25478;42.626;23.320;2023-03-23T14:49:37;10.70;;;7.13;;
39788;SDS011;25478;42.626;23.320;2023-03-23T14:52:10;11.83;;;6.53;;
39788;SDS011;25478;42.626;23.320;2023-03-23T14:54:37;12.37;;;6.83;;
39788;SDS011;25478;42.626;23.320;2023-03-23T14:59:52;10.23;;;6.83;;
39788;SDS011;25478;42.626;23.320;2023-03-23T15:04:56;13.33;;;7.03;;
39788;SDS011;25478;42.626;23.320;2023-03-23T15:07:29;10.73;;;7.23;;
39788;SDS011;25478;42.626;23.320;2023-03-23T15:09:58;10.80;;;6.93;;
39788;SDS011;25478;42.626;23.320;2023-03-23T15:12:26;10.77;;;6.90;;
39788;SDS011;25478;42.626;23.320;2023-03-23T15:14:57;9.40;;;6.40;;
39788;SDS011;25478;42.626;23.320;2023-03-23T15:17:26;10.77;;;7.00;;
39788;SDS011;25478;42.626;23.320;2023-03-23T15:19:53;12.70;;;7.13;;
39788;SDS011;25478;42.626;23.320;2023-03-23T15:22:30;9.47;;;6.40;;
39788;SDS011;25478;42.626;23.320;2023-03-23T15:25:08;10.53;;;6.43;;
39788;SDS011;25478;42.626;23.320;2023-03-23T15:27:43;10.03;;;6.40;;
39788;SDS011;25478;42.626;23.320;2023-03-23T15:32:51;9.27;;;6.50;;
39788;SDS011;25478;42.626;23.320;2023-03-23T15:35:20;9.40;;;6.43;;
39788;SDS011;25478;42.626;23.320;2023-03-23T15:37:57;9.57;;;5.97;;
39788;SDS011;25478;42.626;23.320;2023-03-23T15:40:25;9.70;;;6.50;;
39788;SDS011;25478;42.626;23.320;2023-03-23T15:43:16;12.07;;;7.40;;
39788;SDS011;25478;42.626;23.320;2023-03-23T15:45:55;23.33;;;15.60;;
39788;SDS011;25478;42.626;23.320;2023-03-23T15:48:25;38.27;;;27.33;;
39788;SDS011;25478;42.626;23.320;2023-03-23T15:50:52;30.57;;;21.60;;
39788;SDS011;25478;42.626;23.320;2023-03-23T15:53:34;31.53;;;20.43;;
39788;SDS011;25478;42.626;23.320;2023-03-23T15:56:03;54.33;;;38.53;;
39788;SDS011;25478;42.626;23.320;2023-03-23T15:58:31;46.37;;;32.20;;
39788;SDS011;25478;42.626;23.320;2023-03-23T16:00:57;43.77;;;29.00;;
39788;SDS011;25478;42.626;23.320;2023-03-23T16:03:27;42.93;;;27.23;;
39788;SDS011;25478;42.626;23.320;2023-03-23T16:05:58;28.80;;;16.80;;
39788;SDS011;25478;42.626;23.320;2023-03-23T16:08:24;31.23;;;19.20;;
39788;SDS011;25478;42.626;23.320;2023-03-23T16:10:50;33.40;;;22.57;;
39788;SDS011;25478;42.626;23.320;2023-03-23T16:13:16;23.73;;;17.03;;
39788;SDS011;25478;42.626;23.320;2023-03-23T16:15:42;22.47;;;17.10;;
39788;SDS011;25478;42.626;23.320;2023-03-23T16:18:14;30.00;;;20.07;;
39788;SDS011;25478;42.626;23.320;2023-03-23T16:20:43;29.77;;;19.77;;
39788;SDS011;25478;42.626;23.320;2023-03-23T16:23:08;24.90;;;18.30;;
39788;SDS011;25478;42.626;23.320;2023-03-23T16:25:34;24.43;;;14.93;;
39788;SDS011;25478;42.626;23.320;2023-03-23T16:27:59;23.37;;;15.00;;
39788;SDS011;25478;42.626;23.320;2023-03-23T16:30:26;23.57;;;14.00;;
39788;SDS011;25478;42.626;23.320;2023-03-23T16:32:52;21.37;;;13.97;;
39788;SDS011;25478;42.626;23.320;2023-03-23T16:35:19;25.03;;;15.43;;
39788;SDS011;25478;42.626;23.320;2023-03-23T16:37:46;26.23;;;14.03;;
39788;SDS011;25478;42.626;23.320;2023-03-23T16:40:13;23.40;;;14.37;;
39788;SDS011;25478;42.626;23.320;2023-03-23T16:42:40;31.03;;;14.33;;
39788;SDS011;25478;42.626;23.320;2023-03-23T16:45:06;16.50;;;11.97;;
39788;SDS011;25478;42.626;23.320;2023-03-23T16:47:31;18.50;;;13.47;;
39788;SDS011;25478;42.626;23.320;2023-03-23T16:49:57;41.43;;;21.57;;
39788;SDS011;25478;42.626;23.320;2023-03-23T16:52:22;40.23;;;22.97;;
39788;SDS011;25478;42.626;23.320;2023-03-23T16:54:48;34.63;;;20.13;;
39788;SDS011;25478;42.626;23.320;2023-03-23T16:57:14;40.30;;;23.33;;
39788;SDS011;25478;42.626;23.320;2023-03-23T16:59:39;38.47;;;26.03;;
39788;SDS011;25478;42.626;23.320;2023-03-23T17:02:05;22.20;;;16.23;;
39788;SDS011;25478;42.626;23.320;2023-03-23T17:04:31;14.70;;;10.13;;